This is the latest recevied weather packets stored in our database for station/object KO4IEJ-15. If no packets are shown the sender has not sent any weather packets the latest 10 day(s).
| Time | Temp. | Humidity | Pressure | Rain* | Wind** | Luminosity | Snow |
|---|---|---|---|---|---|---|---|
| 1777145438 | 30° C | 52% | 1009.5 hPa | 0 mm | - | - | - |
| 1777142744 | 29.44° C | 57% | 1010.2 hPa | 0 mm | - | - | - |
| 1777140942 | 29.44° C | 54% | 1010.6 hPa | 0 mm | - | - | - |
| 1777138236 | 28.89° C | 54% | 1010.9 hPa | 0 mm | - | - | - |
| 1777133754 | 27.78° C | 60% | 1011.4 hPa | 0 mm | - | - | - |
| 1777130134 | 26.11° C | 69% | 1011.6 hPa | 0 mm | - | - | - |
| 1777129240 | 26.11° C | 73% | 1011.6 hPa | 0 mm | - | - | - |
| 1777126530 | 25° C | 78% | 1011.7 hPa | 0 mm | - | - | - |
| 1777119336 | 20.56° C | 92% | 1011.7 hPa | 0 mm | - | - | - |
| 1777118447 | 20.56° C | 94% | 1011.5 hPa | 0 mm | - | - | - |
| 1777116631 | 18.89° C | 96% | 1011.5 hPa | 0 mm | - | - | - |
| 1777115731 | 18.89° C | 96% | 1011.2 hPa | 0 mm | - | - | - |
| 1777112132 | 18.89° C | 95% | 1010.8 hPa | 0 mm | - | - | - |
| 1777110332 | 18.89° C | 94% | 1010.7 hPa | 0 mm | - | - | - |
| 1777104038 | 20° C | 92% | 1010.9 hPa | 0 mm | - | - | - |
| 1777101334 | 20° C | 91% | 1010.9 hPa | 0 mm | - | - | - |
| 1777099531 | 20.56° C | 91% | 1011.2 hPa | 0 mm | - | - | - |
| 1777098638 | 20.56° C | 89% | 1011.4 hPa | 0 mm | - | - | - |
| 1777087830 | 21.67° C | 81% | 1012.4 hPa | 0 mm | - | - | - |
| 1777084229 | 22.78° C | 77% | 1012.2 hPa | 0 mm | - | - | - |
| 1777083334 | 22.78° C | 76% | 1012.2 hPa | 0 mm | - | - | - |
| 1777081533 | 23.33° C | 72% | 1012.2 hPa | 0 mm | - | - | - |
| 1777060843 | 27.78° C | 49% | 1011.1 hPa | 0 mm | - | - | - |
| 1777049130 | 25.56° C | 57% | 1013.6 hPa | 0 mm | - | - | - |
| 1777048230 | 25° C | 58% | 1013.9 hPa | 0 mm | - | - | - |
* Rain latest hour (hover to see other rain measurements)
** Current wind speed in m/s (hover to see current wind gust speed)